Airfield :
LOGIN :

Register | Disclaimer

   EN    FR    IT 

 










Legend :    VFR   Marginal VFR   IFR   Intensive IFR   Very Intensive IFR
Visi :
Ceiling :
>= 8 km
>= 3000ft
5 to 8 km
1000 to 3000 ft
1500m to 5 km
500 to 1000 ft
800 to 1500m
200 to 500 ft
< 800m
< 200 ft
Symbols :   Thunderstorms  Fog  Heavy snow  Heavy precipitations  Wind > 20 kt
SIGMETs :     Misc.  Thunderstorms  Icing  Turbulence  Mountain Waves  Volcanic Ashes






- Airport Elevation : 2776 ft
- IATA code : VLL


LEVD - Valladolid

CURRENT METAR :
  • 041200Z 32002KT 9999 FEW049 25/07 Q1024

EXPIRED METARs :
  • 041130Z 01002KT 9999 FEW047 25/07 Q1024
  • 041100Z 27003KT 170V330 9999 FEW045 23/06 Q1024
  • 041030Z 27003KT 160V320 9999 FEW044 22/06 Q1024
  • 041000Z VRB02KT 9999 FEW045 21/06 Q1024
  • 040930Z 19001KT 9999 FEW049 19/06 Q1024

TAF TAF LEVD
Valid from the 04 at 09:00 until the 05 at 09:00 UTC


040800Z 0409/0509 VRB05KT CAVOK TX30/0415Z TN09/0506Z



MET'MAP, your aeronautical weather chart ! - Copyright ORBIFLY December 2007 - Disclaimer

ORBIFLY MET'MAP TEAM :

Programming & Development : Alexandra Zaïnal
Original concept : Baudouin d'Aumeries
Technical & hardware support : Manuel Goepfert
Assistance : Marc-Olivier Méhu




SOURCES & CREDITS :

   NOAA